sensor_id;sensor_type;location;lat;lon;timestamp;temperature;humidity
11497;DHT22;5805;51.542;7.230;2023-03-29T00:02:19;8.40;99.90
11497;DHT22;5805;51.542;7.230;2023-03-29T00:04:46;8.40;99.90
11497;DHT22;5805;51.542;7.230;2023-03-29T00:07:12;9.00;99.90
11497;DHT22;5805;51.542;7.230;2023-03-29T00:09:38;8.30;99.90
11497;DHT22;5805;51.542;7.230;2023-03-29T00:12:04;8.30;99.90
11497;DHT22;5805;51.542;7.230;2023-03-29T00:14:30;8.30;99.90
11497;DHT22;5805;51.542;7.230;2023-03-29T00:16:56;8.30;99.90
11497;DHT22;5805;51.542;7.230;2023-03-29T00:19:22;8.30;99.90
11497;DHT22;5805;51.542;7.230;2023-03-29T00:21:49;8.30;99.90
11497;DHT22;5805;51.542;7.230;2023-03-29T00:24:15;8.30;99.90
11497;DHT22;5805;51.542;7.230;2023-03-29T00:26:40;8.30;99.90
11497;DHT22;5805;51.542;7.230;2023-03-29T00:29:06;8.30;99.90
11497;DHT22;5805;51.542;7.230;2023-03-29T00:31:32;8.40;99.90
11497;DHT22;5805;51.542;7.230;2023-03-29T00:33:57;8.40;99.90
11497;DHT22;5805;51.542;7.230;2023-03-29T00:36:23;8.30;99.90
11497;DHT22;5805;51.542;7.230;2023-03-29T00:38:50;8.30;99.90
11497;DHT22;5805;51.542;7.230;2023-03-29T00:41:16;8.30;99.90
11497;DHT22;5805;51.542;7.230;2023-03-29T00:43:53;8.40;99.90
11497;DHT22;5805;51.542;7.230;2023-03-29T00:46:19;8.40;99.90
11497;DHT22;5805;51.542;7.230;2023-03-29T00:48:45;8.40;99.90
11497;DHT22;5805;51.542;7.230;2023-03-29T00:51:12;8.50;99.90
11497;DHT22;5805;51.542;7.230;2023-03-29T00:53:44;8.60;99.90
11497;DHT22;5805;51.542;7.230;2023-03-29T00:56:14;8.60;99.90
11497;DHT22;5805;51.542;7.230;2023-03-29T00:58:46;8.60;99.90
11497;DHT22;5805;51.542;7.230;2023-03-29T01:01:16;8.60;99.90
11497;DHT22;5805;51.542;7.230;2023-03-29T01:03:46;8.60;99.90
11497;DHT22;5805;51.542;7.230;2023-03-29T01:06:15;8.60;99.90
11497;DHT22;5805;51.542;7.230;2023-03-29T01:08:44;8.60;99.90
11497;DHT22;5805;51.542;7.230;2023-03-29T01:11:16;8.60;99.90
11497;DHT22;5805;51.542;7.230;2023-03-29T01:13:45;8.60;99.90
11497;DHT22;5805;51.542;7.230;2023-03-29T01:16:13;8.60;99.90
11497;DHT22;5805;51.542;7.230;2023-03-29T01:18:40;8.70;99.90
11497;DHT22;5805;51.542;7.230;2023-03-29T01:21:14;8.70;99.90
11497;DHT22;5805;51.542;7.230;2023-03-29T01:23:53;8.80;99.90
11497;DHT22;5805;51.542;7.230;2023-03-29T01:26:27;8.80;99.90
11497;DHT22;5805;51.542;7.230;2023-03-29T01:29:00;9.40;99.90
11497;DHT22;5805;51.542;7.230;2023-03-29T01:31:29;8.80;99.90
11497;DHT22;5805;51.542;7.230;2023-03-29T01:34:01;8.80;99.90
11497;DHT22;5805;51.542;7.230;2023-03-29T01:36:30;8.80;99.90
11497;DHT22;5805;51.542;7.230;2023-03-29T01:38:59;8.80;99.90
11497;DHT22;5805;51.542;7.230;2023-03-29T01:41:33;8.90;99.90
11497;DHT22;5805;51.542;7.230;2023-03-29T01:44:04;8.80;99.90
11497;DHT22;5805;51.542;7.230;2023-03-29T01:46:33;8.80;99.90
11497;DHT22;5805;51.542;7.230;2023-03-29T01:49:03;8.80;99.90
11497;DHT22;5805;51.542;7.230;2023-03-29T01:51:35;8.80;99.90
11497;DHT22;5805;51.542;7.230;2023-03-29T01:54:04;8.80;99.90
11497;DHT22;5805;51.542;7.230;2023-03-29T01:56:35;8.80;99.90
11497;DHT22;5805;51.542;7.230;2023-03-29T01:59:07;8.80;99.90
11497;DHT22;5805;51.542;7.230;2023-03-29T02:01:37;8.80;99.90
11497;DHT22;5805;51.542;7.230;2023-03-29T02:04:07;8.80;99.90
11497;DHT22;5805;51.542;7.230;2023-03-29T02:06:34;8.80;99.90
11497;DHT22;5805;51.542;7.230;2023-03-29T02:09:02;8.80;99.90
11497;DHT22;5805;51.542;7.230;2023-03-29T02:11:28;8.80;99.90
11497;DHT22;5805;51.542;7.230;2023-03-29T02:13:53;8.80;99.90
11497;DHT22;5805;51.542;7.230;2023-03-29T02:16:21;8.80;99.90
11497;DHT22;5805;51.542;7.230;2023-03-29T02:18:48;8.80;99.90
11497;DHT22;5805;51.542;7.230;2023-03-29T02:21:19;8.80;99.90
11497;DHT22;5805;51.542;7.230;2023-03-29T02:23:49;8.80;99.90
11497;DHT22;5805;51.542;7.230;2023-03-29T02:26:16;8.80;99.90
11497;DHT22;5805;51.542;7.230;2023-03-29T02:28:42;8.80;99.90
11497;DHT22;5805;51.542;7.230;2023-03-29T02:31:11;8.80;99.90
11497;DHT22;5805;51.542;7.230;2023-03-29T02:33:46;8.80;99.90
11497;DHT22;5805;51.542;7.230;2023-03-29T02:36:16;8.80;99.90
11497;DHT22;5805;51.542;7.230;2023-03-29T02:38:43;8.90;99.90
11497;DHT22;5805;51.542;7.230;2023-03-29T02:41:09;8.90;99.90
11497;DHT22;5805;51.542;7.230;2023-03-29T02:43:35;8.90;99.90
11497;DHT22;5805;51.542;7.230;2023-03-29T02:46:02;9.00;99.90
11497;DHT22;5805;51.542;7.230;2023-03-29T02:48:30;9.00;99.90
11497;DHT22;5805;51.542;7.230;2023-03-29T02:51:02;9.00;99.90
11497;DHT22;5805;51.542;7.230;2023-03-29T02:53:32;8.90;99.90
11497;DHT22;5805;51.542;7.230;2023-03-29T02:55:59;9.00;99.90
11497;DHT22;5805;51.542;7.230;2023-03-29T02:58:24;9.00;99.90
11497;DHT22;5805;51.542;7.230;2023-03-29T03:00:50;9.00;99.90
11497;DHT22;5805;51.542;7.230;2023-03-29T03:03:16;9.20;99.90
11497;DHT22;5805;51.542;7.230;2023-03-29T03:05:41;9.00;99.90
11497;DHT22;5805;51.542;7.230;2023-03-29T03:08:09;9.00;99.90
11497;DHT22;5805;51.542;7.230;2023-03-29T03:10:35;9.10;99.90
11497;DHT22;5805;51.542;7.230;2023-03-29T03:13:01;9.10;99.90
11497;DHT22;5805;51.542;7.230;2023-03-29T03:15:27;9.10;99.90
11497;DHT22;5805;51.542;7.230;2023-03-29T03:17:52;9.10;99.90
11497;DHT22;5805;51.542;7.230;2023-03-29T03:20:18;9.10;99.90
11497;DHT22;5805;51.542;7.230;2023-03-29T03:22:45;9.10;99.90
11497;DHT22;5805;51.542;7.230;2023-03-29T03:25:12;9.10;99.90
11497;DHT22;5805;51.542;7.230;2023-03-29T03:27:38;9.10;99.90
11497;DHT22;5805;51.542;7.230;2023-03-29T03:30:05;9.10;99.90
11497;DHT22;5805;51.542;7.230;2023-03-29T03:32:31;9.10;99.90
11497;DHT22;5805;51.542;7.230;2023-03-29T03:34:58;9.20;99.90
11497;DHT22;5805;51.542;7.230;2023-03-29T03:37:23;9.20;99.90
11497;DHT22;5805;51.542;7.230;2023-03-29T03:39:49;9.20;99.90
11497;DHT22;5805;51.542;7.230;2023-03-29T03:42:16;9.20;99.90
11497;DHT22;5805;51.542;7.230;2023-03-29T03:44:42;9.20;99.90
11497;DHT22;5805;51.542;7.230;2023-03-29T03:47:08;9.20;99.90
11497;DHT22;5805;51.542;7.230;2023-03-29T03:49:33;9.20;99.90
11497;DHT22;5805;51.542;7.230;2023-03-29T03:51:59;9.60;99.90
11497;DHT22;5805;51.542;7.230;2023-03-29T03:54:25;9.20;99.90
11497;DHT22;5805;51.542;7.230;2023-03-29T03:56:50;9.20;99.90
11497;DHT22;5805;51.542;7.230;2023-03-29T03:59:17;9.60;99.90
11497;DHT22;5805;51.542;7.230;2023-03-29T04:01:43;9.30;99.90
11497;DHT22;5805;51.542;7.230;2023-03-29T04:04:09;9.20;99.90
11497;DHT22;5805;51.542;7.230;2023-03-29T04:06:35;9.20;99.90
11497;DHT22;5805;51.542;7.230;2023-03-29T04:09:01;9.20;99.90
11497;DHT22;5805;51.542;7.230;2023-03-29T04:11:26;9.20;99.90
11497;DHT22;5805;51.542;7.230;2023-03-29T04:13:52;9.30;99.90
11497;DHT22;5805;51.542;7.230;2023-03-29T04:16:19;9.30;99.90
11497;DHT22;5805;51.542;7.230;2023-03-29T04:18:45;9.30;99.90
11497;DHT22;5805;51.542;7.230;2023-03-29T04:21:11;9.20;99.90
11497;DHT22;5805;51.542;7.230;2023-03-29T04:23:36;9.20;99.90
11497;DHT22;5805;51.542;7.230;2023-03-29T04:26:02;9.20;99.90
11497;DHT22;5805;51.542;7.230;2023-03-29T04:28:28;9.20;99.90
11497;DHT22;5805;51.542;7.230;2023-03-29T04:30:53;9.30;99.90
11497;DHT22;5805;51.542;7.230;2023-03-29T04:33:20;9.30;99.90
11497;DHT22;5805;51.542;7.230;2023-03-29T04:35:46;9.50;99.90
11497;DHT22;5805;51.542;7.230;2023-03-29T04:38:12;9.30;99.90
11497;DHT22;5805;51.542;7.230;2023-03-29T04:40:37;9.30;99.90
11497;DHT22;5805;51.542;7.230;2023-03-29T04:43:03;9.30;99.90
11497;DHT22;5805;51.542;7.230;2023-03-29T04:45:29;9.30;99.90
11497;DHT22;5805;51.542;7.230;2023-03-29T04:47:55;9.20;99.90
11497;DHT22;5805;51.542;7.230;2023-03-29T04:50:22;9.20;99.90
11497;DHT22;5805;51.542;7.230;2023-03-29T04:52:48;9.20;99.90
11497;DHT22;5805;51.542;7.230;2023-03-29T04:55:14;9.20;99.90
11497;DHT22;5805;51.542;7.230;2023-03-29T04:57:39;9.20;99.90
11497;DHT22;5805;51.542;7.230;2023-03-29T05:00:06;9.30;99.90
11497;DHT22;5805;51.542;7.230;2023-03-29T05:02:32;9.20;99.90
11497;DHT22;5805;51.542;7.230;2023-03-29T05:04:57;9.40;99.90
11497;DHT22;5805;51.542;7.230;2023-03-29T05:07:25;9.20;99.90
11497;DHT22;5805;51.542;7.230;2023-03-29T05:09:50;9.30;99.90
11497;DHT22;5805;51.542;7.230;2023-03-29T05:12:16;9.30;99.90
11497;DHT22;5805;51.542;7.230;2023-03-29T05:14:42;9.30;99.90
11497;DHT22;5805;51.542;7.230;2023-03-29T05:17:07;9.30;99.90
11497;DHT22;5805;51.542;7.230;2023-03-29T05:19:33;9.30;99.90
11497;DHT22;5805;51.542;7.230;2023-03-29T05:21:59;9.30;99.90
11497;DHT22;5805;51.542;7.230;2023-03-29T05:24:27;9.30;99.90
11497;DHT22;5805;51.542;7.230;2023-03-29T05:26:52;9.40;99.90
11497;DHT22;5805;51.542;7.230;2023-03-29T05:29:18;9.40;99.90
11497;DHT22;5805;51.542;7.230;2023-03-29T05:31:44;9.30;99.90
11497;DHT22;5805;51.542;7.230;2023-03-29T05:34:10;9.30;99.90
11497;DHT22;5805;51.542;7.230;2023-03-29T05:36:36;9.30;99.90
11497;DHT22;5805;51.542;7.230;2023-03-29T05:39:01;9.30;99.90
11497;DHT22;5805;51.542;7.230;2023-03-29T05:41:28;9.30;99.90
11497;DHT22;5805;51.542;7.230;2023-03-29T05:43:54;9.30;99.90
11497;DHT22;5805;51.542;7.230;2023-03-29T05:46:20;9.30;99.90
11497;DHT22;5805;51.542;7.230;2023-03-29T05:48:45;9.40;99.90
11497;DHT22;5805;51.542;7.230;2023-03-29T05:51:11;9.40;99.90
11497;DHT22;5805;51.542;7.230;2023-03-29T05:53:37;9.30;99.90
11497;DHT22;5805;51.542;7.230;2023-03-29T05:56:03;9.30;99.90
11497;DHT22;5805;51.542;7.230;2023-03-29T05:58:30;9.40;99.90
11497;DHT22;5805;51.542;7.230;2023-03-29T06:00:56;9.30;99.90
11497;DHT22;5805;51.542;7.230;2023-03-29T06:03:23;9.40;99.90
11497;DHT22;5805;51.542;7.230;2023-03-29T06:05:55;9.40;99.90
11497;DHT22;5805;51.542;7.230;2023-03-29T06:08:21;9.40;99.90
11497;DHT22;5805;51.542;7.230;2023-03-29T06:10:47;9.50;99.90
11497;DHT22;5805;51.542;7.230;2023-03-29T06:13:12;9.60;99.90
11497;DHT22;5805;51.542;7.230;2023-03-29T06:15:39;9.60;99.90
11497;DHT22;5805;51.542;7.230;2023-03-29T06:18:05;9.60;99.90
11497;DHT22;5805;51.542;7.230;2023-03-29T06:20:31;9.70;99.90
11497;DHT22;5805;51.542;7.230;2023-03-29T06:22:57;9.70;99.90
11497;DHT22;5805;51.542;7.230;2023-03-29T06:25:23;9.70;99.90
11497;DHT22;5805;51.542;7.230;2023-03-29T06:27:49;9.70;99.90
11497;DHT22;5805;51.542;7.230;2023-03-29T06:30:15;9.80;99.90
11497;DHT22;5805;51.542;7.230;2023-03-29T06:32:42;9.90;99.90
11497;DHT22;5805;51.542;7.230;2023-03-29T06:35:08;9.90;99.90
11497;DHT22;5805;51.542;7.230;2023-03-29T06:37:34;9.90;99.90
11497;DHT22;5805;51.542;7.230;2023-03-29T06:40:00;10.00;99.90
11497;DHT22;5805;51.542;7.230;2023-03-29T06:42:26;10.00;99.90
11497;DHT22;5805;51.542;7.230;2023-03-29T06:44:52;10.10;99.90
11497;DHT22;5805;51.542;7.230;2023-03-29T06:47:18;10.20;99.90
11497;DHT22;5805;51.542;7.230;2023-03-29T06:49:45;10.30;99.90
11497;DHT22;5805;51.542;7.230;2023-03-29T06:52:10;10.30;99.90
11497;DHT22;5805;51.542;7.230;2023-03-29T06:54:36;10.30;99.90
11497;DHT22;5805;51.542;7.230;2023-03-29T06:57:02;10.40;99.90
11497;DHT22;5805;51.542;7.230;2023-03-29T06:59:28;10.40;99.90
11497;DHT22;5805;51.542;7.230;2023-03-29T07:01:54;10.50;99.90
11497;DHT22;5805;51.542;7.230;2023-03-29T07:04:20;10.50;99.90
11497;DHT22;5805;51.542;7.230;2023-03-29T07:06:47;10.50;99.90
11497;DHT22;5805;51.542;7.230;2023-03-29T07:09:13;10.60;99.90
11497;DHT22;5805;51.542;7.230;2023-03-29T07:11:38;10.60;99.90
11497;DHT22;5805;51.542;7.230;2023-03-29T07:14:04;10.70;99.90
11497;DHT22;5805;51.542;7.230;2023-03-29T07:16:30;10.70;99.90
11497;DHT22;5805;51.542;7.230;2023-03-29T07:18:55;11.00;99.90
11497;DHT22;5805;51.542;7.230;2023-03-29T07:21:21;10.90;99.90
11497;DHT22;5805;51.542;7.230;2023-03-29T07:23:48;11.10;99.90
11497;DHT22;5805;51.542;7.230;2023-03-29T07:26:14;11.00;99.90
11497;DHT22;5805;51.542;7.230;2023-03-29T07:28:39;11.10;99.90
11497;DHT22;5805;51.542;7.230;2023-03-29T07:31:07;11.10;99.90
11497;DHT22;5805;51.542;7.230;2023-03-29T07:33:34;11.20;99.90
11497;DHT22;5805;51.542;7.230;2023-03-29T07:36:00;11.20;99.90
11497;DHT22;5805;51.542;7.230;2023-03-29T07:38:25;11.20;99.90
11497;DHT22;5805;51.542;7.230;2023-03-29T07:40:53;11.20;99.90
11497;DHT22;5805;51.542;7.230;2023-03-29T07:43:18;11.30;99.90
11497;DHT22;5805;51.542;7.230;2023-03-29T07:45:44;11.30;99.90
11497;DHT22;5805;51.542;7.230;2023-03-29T07:48:10;11.30;99.90
11497;DHT22;5805;51.542;7.230;2023-03-29T07:50:36;11.30;99.90
11497;DHT22;5805;51.542;7.230;2023-03-29T07:53:01;11.30;99.90
11497;DHT22;5805;51.542;7.230;2023-03-29T07:55:27;11.40;99.90
11497;DHT22;5805;51.542;7.230;2023-03-29T07:57:54;11.50;99.90
11497;DHT22;5805;51.542;7.230;2023-03-29T08:00:21;11.70;99.90
11497;DHT22;5805;51.542;7.230;2023-03-29T08:02:48;11.60;99.90
11497;DHT22;5805;51.542;7.230;2023-03-29T08:05:14;11.80;99.90
11497;DHT22;5805;51.542;7.230;2023-03-29T08:07:42;11.80;99.90
11497;DHT22;5805;51.542;7.230;2023-03-29T08:10:11;11.70;99.90
11497;DHT22;5805;51.542;7.230;2023-03-29T08:12:37;11.80;99.90
11497;DHT22;5805;51.542;7.230;2023-03-29T08:15:06;11.70;99.90
11497;DHT22;5805;51.542;7.230;2023-03-29T08:17:31;11.70;99.90
11497;DHT22;5805;51.542;7.230;2023-03-29T08:19:57;11.80;99.90
11497;DHT22;5805;51.542;7.230;2023-03-29T08:22:23;11.80;99.90
11497;DHT22;5805;51.542;7.230;2023-03-29T08:24:49;11.80;99.90
11497;DHT22;5805;51.542;7.230;2023-03-29T08:27:14;12.00;99.90
11497;DHT22;5805;51.542;7.230;2023-03-29T08:29:40;12.30;99.90
11497;DHT22;5805;51.542;7.230;2023-03-29T08:32:07;12.50;99.90
11497;DHT22;5805;51.542;7.230;2023-03-29T08:34:33;12.50;99.90
11497;DHT22;5805;51.542;7.230;2023-03-29T08:36:58;12.50;99.90
11497;DHT22;5805;51.542;7.230;2023-03-29T08:39:24;12.50;99.90
11497;DHT22;5805;51.542;7.230;2023-03-29T08:41:58;12.50;99.90
11497;DHT22;5805;51.542;7.230;2023-03-29T08:44:45;12.40;99.90
11497;DHT22;5805;51.542;7.230;2023-03-29T08:47:18;12.40;99.90
11497;DHT22;5805;51.542;7.230;2023-03-29T08:49:48;12.50;99.90
11497;DHT22;5805;51.542;7.230;2023-03-29T08:52:20;12.40;99.90
11497;DHT22;5805;51.542;7.230;2023-03-29T08:54:49;12.50;99.90
11497;DHT22;5805;51.542;7.230;2023-03-29T08:57:20;12.50;99.90
11497;DHT22;5805;51.542;7.230;2023-03-29T08:59:49;12.60;99.90
11497;DHT22;5805;51.542;7.230;2023-03-29T09:02:21;12.60;99.90
11497;DHT22;5805;51.542;7.230;2023-03-29T09:04:47;12.60;99.90
11497;DHT22;5805;51.542;7.230;2023-03-29T09:07:14;12.40;99.90
11497;DHT22;5805;51.542;7.230;2023-03-29T09:09:40;12.30;99.90
11497;DHT22;5805;51.542;7.230;2023-03-29T09:12:16;12.40;99.90
11497;DHT22;5805;51.542;7.230;2023-03-29T09:14:51;12.30;99.90
11497;DHT22;5805;51.542;7.230;2023-03-29T09:17:29;12.50;99.90
11497;DHT22;5805;51.542;7.230;2023-03-29T09:20:03;12.50;99.90
11497;DHT22;5805;51.542;7.230;2023-03-29T09:22:39;12.50;99.90
11497;DHT22;5805;51.542;7.230;2023-03-29T09:25:12;12.70;99.90
11497;DHT22;5805;51.542;7.230;2023-03-29T09:27:43;12.60;99.90
11497;DHT22;5805;51.542;7.230;2023-03-29T09:30:14;12.60;99.90
11497;DHT22;5805;51.542;7.230;2023-03-29T09:32:48;12.50;99.90
11497;DHT22;5805;51.542;7.230;2023-03-29T09:35:20;12.50;99.90
11497;DHT22;5805;51.542;7.230;2023-03-29T09:37:48;12.60;99.90
11497;DHT22;5805;51.542;7.230;2023-03-29T09:40:17;12.70;99.90
11497;DHT22;5805;51.542;7.230;2023-03-29T09:42:46;12.80;99.90
11497;DHT22;5805;51.542;7.230;2023-03-29T09:45:13;12.90;99.90
11497;DHT22;5805;51.542;7.230;2023-03-29T09:47:43;13.00;99.90
11497;DHT22;5805;51.542;7.230;2023-03-29T09:50:12;13.20;99.90
11497;DHT22;5805;51.542;7.230;2023-03-29T09:52:39;13.50;99.90
11497;DHT22;5805;51.542;7.230;2023-03-29T09:55:06;13.70;99.90
11497;DHT22;5805;51.542;7.230;2023-03-29T09:57:32;14.00;99.90
11497;DHT22;5805;51.542;7.230;2023-03-29T09:59:58;14.50;99.90
11497;DHT22;5805;51.542;7.230;2023-03-29T10:02:30;14.80;99.90
11497;DHT22;5805;51.542;7.230;2023-03-29T10:04:57;15.00;99.90
11497;DHT22;5805;51.542;7.230;2023-03-29T10:07:31;15.30;99.90
11497;DHT22;5805;51.542;7.230;2023-03-29T10:09:58;14.80;99.90
11497;DHT22;5805;51.542;7.230;2023-03-29T10:12:24;14.60;99.90
11497;DHT22;5805;51.542;7.230;2023-03-29T10:14:52;14.40;99.90
11497;DHT22;5805;51.542;7.230;2023-03-29T10:17:20;14.30;99.90
11497;DHT22;5805;51.542;7.230;2023-03-29T10:19:48;14.20;99.90
11497;DHT22;5805;51.542;7.230;2023-03-29T10:22:18;14.20;99.90
11497;DHT22;5805;51.542;7.230;2023-03-29T10:24:47;14.40;99.90
11497;DHT22;5805;51.542;7.230;2023-03-29T10:27:13;14.80;99.90
11497;DHT22;5805;51.542;7.230;2023-03-29T10:29:43;14.90;99.90
11497;DHT22;5805;51.542;7.230;2023-03-29T10:32:16;15.00;99.90
11497;DHT22;5805;51.542;7.230;2023-03-29T10:34:44;15.10;99.90
11497;DHT22;5805;51.542;7.230;2023-03-29T10:37:11;15.00;99.90
11497;DHT22;5805;51.542;7.230;2023-03-29T10:39:38;14.80;99.90
11497;DHT22;5805;51.542;7.230;2023-03-29T10:42:05;14.70;99.90
11497;DHT22;5805;51.542;7.230;2023-03-29T10:44:33;14.60;99.90
11497;DHT22;5805;51.542;7.230;2023-03-29T10:47:08;14.60;99.90
11497;DHT22;5805;51.542;7.230;2023-03-29T10:49:39;14.70;99.90
11497;DHT22;5805;51.542;7.230;2023-03-29T10:52:05;14.80;99.90
11497;DHT22;5805;51.542;7.230;2023-03-29T10:54:31;15.00;99.90
11497;DHT22;5805;51.542;7.230;2023-03-29T10:57:03;15.10;99.90
11497;DHT22;5805;51.542;7.230;2023-03-29T10:59:31;15.20;99.90
11497;DHT22;5805;51.542;7.230;2023-03-29T11:05:18;15.10;99.90
11497;DHT22;5805;51.542;7.230;2023-03-29T11:07:58;15.10;99.90
11497;DHT22;5805;51.542;7.230;2023-03-29T11:10:36;15.20;99.90
11497;DHT22;5805;51.542;7.230;2023-03-29T11:13:12;15.30;99.90
11497;DHT22;5805;51.542;7.230;2023-03-29T11:15:47;15.40;99.90
11497;DHT22;5805;51.542;7.230;2023-03-29T11:18:54;15.50;99.90
11497;DHT22;5805;51.542;7.230;2023-03-29T11:21:28;15.50;99.90
11497;DHT22;5805;51.542;7.230;2023-03-29T11:24:02;15.60;99.90
11497;DHT22;5805;51.542;7.230;2023-03-29T11:26:39;15.80;99.90
11497;DHT22;5805;51.542;7.230;2023-03-29T11:29:13;16.20;99.90
11497;DHT22;5805;51.542;7.230;2023-03-29T11:31:48;16.50;99.90
11497;DHT22;5805;51.542;7.230;2023-03-29T11:34:26;16.40;99.90
11497;DHT22;5805;51.542;7.230;2023-03-29T11:36:56;16.50;99.90
11497;DHT22;5805;51.542;7.230;2023-03-29T11:39:29;16.40;99.90
11497;DHT22;5805;51.542;7.230;2023-03-29T11:42:04;16.50;99.90
11497;DHT22;5805;51.542;7.230;2023-03-29T11:44:34;16.80;99.60
11497;DHT22;5805;51.542;7.230;2023-03-29T11:47:02;16.90;98.70
11497;DHT22;5805;51.542;7.230;2023-03-29T11:49:34;17.00;99.70
11497;DHT22;5805;51.542;7.230;2023-03-29T11:52:05;17.20;98.30
11497;DHT22;5805;51.542;7.230;2023-03-29T11:54:37;17.20;98.00
11497;DHT22;5805;51.542;7.230;2023-03-29T11:57:09;17.20;97.50
11497;DHT22;5805;51.542;7.230;2023-03-29T11:59:41;17.20;97.50
11497;DHT22;5805;51.542;7.230;2023-03-29T12:02:15;17.20;98.00
11497;DHT22;5805;51.542;7.230;2023-03-29T12:04:48;17.30;97.40
11497;DHT22;5805;51.542;7.230;2023-03-29T12:07:18;17.30;96.80
11497;DHT22;5805;51.542;7.230;2023-03-29T12:09:48;17.20;97.30
11497;DHT22;5805;51.542;7.230;2023-03-29T12:12:19;17.10;97.50
11497;DHT22;5805;51.542;7.230;2023-03-29T12:14:53;17.10;98.30
11497;DHT22;5805;51.542;7.230;2023-03-29T12:17:26;17.10;97.60
11497;DHT22;5805;51.542;7.230;2023-03-29T12:20:01;17.00;98.00
11497;DHT22;5805;51.542;7.230;2023-03-29T12:22:28;17.00;98.20
11497;DHT22;5805;51.542;7.230;2023-03-29T12:24:54;17.00;99.00
11497;DHT22;5805;51.542;7.230;2023-03-29T12:27:26;17.10;99.30
11497;DHT22;5805;51.542;7.230;2023-03-29T12:30:20;17.20;99.10
11497;DHT22;5805;51.542;7.230;2023-03-29T12:35:45;17.20;98.70
11497;DHT22;5805;51.542;7.230;2023-03-29T12:38:18;17.40;98.00
11497;DHT22;5805;51.542;7.230;2023-03-29T12:40:46;17.50;98.30
11497;DHT22;5805;51.542;7.230;2023-03-29T12:43:22;17.50;98.20
11497;DHT22;5805;51.542;7.230;2023-03-29T12:45:52;17.60;97.60
11497;DHT22;5805;51.542;7.230;2023-03-29T12:48:21;17.60;97.80
11497;DHT22;5805;51.542;7.230;2023-03-29T12:50:50;17.70;98.00
11497;DHT22;5805;51.542;7.230;2023-03-29T12:53:21;17.70;97.70
11497;DHT22;5805;51.542;7.230;2023-03-29T12:55:53;17.60;97.90
11497;DHT22;5805;51.542;7.230;2023-03-29T12:58:41;17.60;98.30
11497;DHT22;5805;51.542;7.230;2023-03-29T13:01:20;17.50;97.60
11497;DHT22;5805;51.542;7.230;2023-03-29T13:03:48;17.40;98.20
11497;DHT22;5805;51.542;7.230;2023-03-29T13:06:28;17.20;99.10
11497;DHT22;5805;51.542;7.230;2023-03-29T13:08:58;17.10;99.60
11497;DHT22;5805;51.542;7.230;2023-03-29T13:11:26;17.00;99.90
11497;DHT22;5805;51.542;7.230;2023-03-29T13:13:52;16.90;99.90
11497;DHT22;5805;51.542;7.230;2023-03-29T13:16:27;16.90;99.90
11497;DHT22;5805;51.542;7.230;2023-03-29T13:18:59;16.70;99.90
11497;DHT22;5805;51.542;7.230;2023-03-29T13:21:34;16.70;99.90
11497;DHT22;5805;51.542;7.230;2023-03-29T13:24:17;16.80;99.90
11497;DHT22;5805;51.542;7.230;2023-03-29T13:26:53;16.90;99.90
11497;DHT22;5805;51.542;7.230;2023-03-29T13:29:52;17.00;99.90
11497;DHT22;5805;51.542;7.230;2023-03-29T13:32:42;17.20;99.90
11497;DHT22;5805;51.542;7.230;2023-03-29T13:35:15;17.30;99.90
11497;DHT22;5805;51.542;7.230;2023-03-29T13:37:52;17.50;99.20
11497;DHT22;5805;51.542;7.230;2023-03-29T13:40:30;17.70;99.00
11497;DHT22;5805;51.542;7.230;2023-03-29T13:42:57;17.90;97.90
11497;DHT22;5805;51.542;7.230;2023-03-29T13:45:25;17.90;97.90
11497;DHT22;5805;51.542;7.230;2023-03-29T13:48:02;17.90;98.20
11497;DHT22;5805;51.542;7.230;2023-03-29T13:50:37;17.90;98.20
11497;DHT22;5805;51.542;7.230;2023-03-29T13:53:09;18.00;97.90
11497;DHT22;5805;51.542;7.230;2023-03-29T13:55:42;18.10;98.30
11497;DHT22;5805;51.542;7.230;2023-03-29T13:58:12;18.10;97.50
11497;DHT22;5805;51.542;7.230;2023-03-29T14:00:43;18.00;97.60
11497;DHT22;5805;51.542;7.230;2023-03-29T14:03:14;17.70;98.40
11497;DHT22;5805;51.542;7.230;2023-03-29T14:05:43;17.50;99.40
11497;DHT22;5805;51.542;7.230;2023-03-29T14:08:15;17.40;99.90
11497;DHT22;5805;51.542;7.230;2023-03-29T14:10:44;17.50;99.90
11497;DHT22;5805;51.542;7.230;2023-03-29T14:13:11;17.50;99.90
11497;DHT22;5805;51.542;7.230;2023-03-29T14:15:42;17.60;99.90
11497;DHT22;5805;51.542;7.230;2023-03-29T14:18:12;17.80;99.90
11497;DHT22;5805;51.542;7.230;2023-03-29T14:20:42;17.90;99.50
11497;DHT22;5805;51.542;7.230;2023-03-29T14:23:09;17.90;99.10
11497;DHT22;5805;51.542;7.230;2023-03-29T14:25:36;18.00;99.30
11497;DHT22;5805;51.542;7.230;2023-03-29T14:28:11;18.00;99.00
11497;DHT22;5805;51.542;7.230;2023-03-29T14:30:37;18.00;99.00
11497;DHT22;5805;51.542;7.230;2023-03-29T14:33:03;17.90;99.20
11497;DHT22;5805;51.542;7.230;2023-03-29T14:35:31;17.90;99.00
11497;DHT22;5805;51.542;7.230;2023-03-29T14:37:57;17.80;99.20
11497;DHT22;5805;51.542;7.230;2023-03-29T14:40:23;17.80;99.70
11497;DHT22;5805;51.542;7.230;2023-03-29T14:42:49;17.80;99.80
11497;DHT22;5805;51.542;7.230;2023-03-29T14:45:16;17.80;99.60
11497;DHT22;5805;51.542;7.230;2023-03-29T14:47:43;17.80;99.50
11497;DHT22;5805;51.542;7.230;2023-03-29T14:50:16;17.80;99.40
11497;DHT22;5805;51.542;7.230;2023-03-29T14:52:44;17.70;99.20
11497;DHT22;5805;51.542;7.230;2023-03-29T14:55:11;17.80;99.70
11497;DHT22;5805;51.542;7.230;2023-03-29T14:57:37;17.80;99.70
11497;DHT22;5805;51.542;7.230;2023-03-29T15:00:11;17.80;99.80
11497;DHT22;5805;51.542;7.230;2023-03-29T15:02:48;17.80;99.60
11497;DHT22;5805;51.542;7.230;2023-03-29T15:05:29;17.80;99.70
11497;DHT22;5805;51.542;7.230;2023-03-29T15:07:59;17.70;99.90
11497;DHT22;5805;51.542;7.230;2023-03-29T15:10:25;17.80;99.90
11497;DHT22;5805;51.542;7.230;2023-03-29T15:12:51;17.80;99.90
11497;DHT22;5805;51.542;7.230;2023-03-29T15:15:17;17.70;99.90
11497;DHT22;5805;51.542;7.230;2023-03-29T15:17:44;17.60;99.90
11497;DHT22;5805;51.542;7.230;2023-03-29T15:20:14;17.60;99.90
11497;DHT22;5805;51.542;7.230;2023-03-29T15:22:52;17.60;99.90
11497;DHT22;5805;51.542;7.230;2023-03-29T15:25:20;17.60;99.90
11497;DHT22;5805;51.542;7.230;2023-03-29T15:27:53;17.50;99.90
11497;DHT22;5805;51.542;7.230;2023-03-29T15:30:19;17.60;99.90
11497;DHT22;5805;51.542;7.230;2023-03-29T15:32:52;17.50;99.90
11497;DHT22;5805;51.542;7.230;2023-03-29T15:35:22;17.50;99.90
11497;DHT22;5805;51.542;7.230;2023-03-29T15:37:49;17.60;99.90
11497;DHT22;5805;51.542;7.230;2023-03-29T15:40:15;17.50;99.90
11497;DHT22;5805;51.542;7.230;2023-03-29T15:42:43;17.50;99.90
11497;DHT22;5805;51.542;7.230;2023-03-29T15:45:13;17.50;99.90
11497;DHT22;5805;51.542;7.230;2023-03-29T15:47:39;17.50;99.90
11497;DHT22;5805;51.542;7.230;2023-03-29T15:50:05;17.50;99.90
11497;DHT22;5805;51.542;7.230;2023-03-29T15:52:31;17.50;99.90
11497;DHT22;5805;51.542;7.230;2023-03-29T15:54:57;17.50;99.90
11497;DHT22;5805;51.542;7.230;2023-03-29T15:57:22;17.50;99.90
11497;DHT22;5805;51.542;7.230;2023-03-29T15:59:49;17.50;99.90
11497;DHT22;5805;51.542;7.230;2023-03-29T16:02:16;17.50;99.90
11497;DHT22;5805;51.542;7.230;2023-03-29T16:04:44;17.50;99.90
11497;DHT22;5805;51.542;7.230;2023-03-29T16:07:12;17.40;99.90
11497;DHT22;5805;51.542;7.230;2023-03-29T16:09:38;17.30;99.90